Time;durP1;ratioP1;P1;durP2;ratioP2;P2;SDS_P1;SDS_P2;PMS_P1;PMS_P2;Temp;Humidity;BMP_temperature;BMP_pressure;BME280_temperature;BME280_humidity;BME280_pressure;Samples;Min_cycle;Max_cycle;Signal;HPM_P1;HPM_P2
2022/06/21 00:02:16;;;;;;;1.65;1.57;;;;;;;29.78;29.36;98662.11;1824585;77;28395;-46
2022/06/21 00:05:08;;;;;;;1.57;1.57;;;;;;;29.72;29.55;98661.09;1834169;76;28355;-43
2022/06/21 00:07:56;;;;;;;2.92;1.72;;;;;;;29.73;29.57;98646.96;1750765;80;28512;-45
2022/06/21 00:10:47;;;;;;;1.53;1.43;;;;;;;29.82;29.47;98656.25;1823752;77;28337;-43
2022/06/21 00:13:36;;;;;;;1.70;1.60;;;;;;;29.78;29.56;98651.63;1836186;76;28263;-45
2022/06/21 00:16:27;;;;;;;1.70;1.60;;;;;;;29.75;29.52;98655.78;1831439;76;28358;-42
2022/06/21 00:19:19;;;;;;;1.70;1.50;;;;;;;29.65;29.49;98662.03;1831433;76;28282;-46
2022/06/21 00:22:10;;;;;;;1.70;1.57;;;;;;;29.71;29.59;98672.72;1808264;78;28269;-43
2022/06/21 00:24:59;;;;;;;1.80;1.50;;;;;;;29.76;29.52;98676.83;1796775;77;28317;-45
2022/06/21 00:27:47;;;;;;;1.50;1.40;;;;;;;29.79;29.51;98673.46;1830453;77;28414;-45
2022/06/21 00:30:36;;;;;;;1.98;1.40;;;;;;;29.81;29.44;98673.98;1800948;76;28427;-43
2022/06/21 00:33:26;;;;;;;1.53;1.53;;;;;;;29.87;29.52;98681.06;1793533;77;28317;-44
2022/06/21 00:36:29;;;;;;;2.05;1.62;;;;;;;29.92;29.45;98679.59;1814815;77;28382;-44
2022/06/21 00:39:20;;;;;;;1.65;1.52;;;;;;;29.96;29.47;98673.73;1840452;76;28305;-45
2022/06/21 00:42:29;;;;;;;1.75;1.65;;;;;;;29.98;29.57;98679.80;1806762;76;28490;-43
2022/06/21 00:45:30;;;;;;;2.10;1.60;;;;;;;30.05;29.50;98676.07;1813819;76;39009;-42
2022/06/21 00:48:22;;;;;;;1.40;1.40;;;;;;;30.06;29.48;98669.94;1812735;76;28391;-45
2022/06/21 00:51:17;;;;;;;1.72;1.62;;;;;;;30.08;29.57;98662.17;1835695;76;28215;-42
2022/06/21 00:54:08;;;;;;;1.50;1.50;;;;;;;30.11;29.60;98671.83;1848988;76;28483;-46
2022/06/21 00:57:02;;;;;;;1.50;1.50;;;;;;;29.99;29.57;98661.23;1847187;76;28312;-44
2022/06/21 00:59:53;;;;;;;3.00;1.50;;;;;;;30.06;29.80;98678.25;1776954;79;28402;-44
2022/06/21 01:02:41;;;;;;;1.65;1.60;;;;;;;30.09;29.86;98686.80;1803622;78;28503;-43
2022/06/21 01:05:32;;;;;;;1.70;1.60;;;;;;;30.14;29.83;98691.98;1810085;77;28348;-45
2022/06/21 01:08:24;;;;;;;1.80;1.70;;;;;;;30.21;29.84;98699.33;1815248;77;28306;-43
2022/06/21 01:11:15;;;;;;;3.83;2.00;;;;;;;30.18;29.71;98699.96;1827355;76;28366;-45
2022/06/21 01:14:05;;;;;;;1.77;1.67;;;;;;;30.11;29.73;98696.17;1809408;77;28390;-44
2022/06/21 01:16:54;;;;;;;1.57;1.50;;;;;;;30.14;29.82;98697.52;1822285;77;28209;-43
2022/06/21 01:19:45;;;;;;;1.52;1.42;;;;;;;30.14;29.84;98697.52;1842347;77;28318;-43
2022/06/21 01:22:55;;;;;;;1.60;1.60;;;;;;;30.15;29.81;98701.95;1840371;77;28325;-46
2022/06/21 01:25:46;;;;;;;1.75;1.65;;;;;;;30.13;29.84;98704.20;1800508;77;28282;-44
2022/06/21 01:28:35;;;;;;;1.65;1.50;;;;;;;30.08;29.88;98699.57;1817252;77;28337;-43
2022/06/21 01:31:24;;;;;;;2.40;1.60;;;;;;;30.05;29.93;98698.23;1825654;76;28271;-43
2022/06/21 01:34:16;;;;;;;1.92;1.60;;;;;;;30.07;30.04;98695.97;1814158;76;28232;-47
2022/06/21 01:37:13;;;;;;;2.55;1.55;;;;;;;30.09;30.02;98698.43;1765873;79;28505;-44
2022/06/21 01:40:13;;;;;;;1.70;1.60;;;;;;;30.11;30.00;98702.30;1753466;79;28882;-43
2022/06/21 01:43:05;;;;;;;1.90;1.72;;;;;;;30.07;30.01;98693.76;1793671;78;28355;-43
2022/06/21 01:45:56;;;;;;;1.70;1.60;;;;;;;29.99;30.20;98696.66;1846702;76;28200;-49
2022/06/21 01:48:47;;;;;;;1.62;1.40;;;;;;;29.96;30.19;98702.81;1835186;76;28392;-45
2022/06/21 01:51:45;;;;;;;1.60;1.50;;;;;;;29.94;30.30;98704.23;1855340;76;28270;-44
2022/06/21 01:54:38;;;;;;;1.67;1.57;;;;;;;29.96;30.39;98708.91;1799883;77;28260;-44
2022/06/21 01:57:27;;;;;;;2.05;1.50;;;;;;;29.96;30.45;98706.97;1848841;77;28289;-46
2022/06/21 02:00:17;;;;;;;1.62;1.52;;;;;;;29.92;30.54;98715.60;1816352;77;28298;-45
2022/06/21 02:03:11;;;;;;;2.35;1.67;;;;;;;29.87;30.66;98712.91;1821116;76;28348;-45
2022/06/21 02:06:02;;;;;;;2.30;1.70;;;;;;;29.89;30.68;98711.24;1829882;77;28289;-45
2022/06/21 02:08:53;;;;;;;1.47;1.47;;;;;;;29.90;30.78;98710.09;1842532;76;28330;-47
2022/06/21 02:12:03;;;;;;;1.90;1.77;;;;;;;29.89;30.86;98709.86;1810789;78;28307;-45
2022/06/21 02:14:54;;;;;;;1.50;1.50;;;;;;;29.94;30.84;98707.01;1827141;76;28293;-45
2022/06/21 02:17:46;;;;;;;1.50;1.40;;;;;;;29.92;30.96;98697.59;1846289;76;28248;-45
2022/06/21 02:20:50;;;;;;;1.70;1.60;;;;;;;29.94;30.97;98702.86;1833080;76;28239;-44
2022/06/21 02:23:40;;;;;;;1.47;1.43;;;;;;;29.99;30.97;98698.03;1805615;77;28219;-44
2022/06/21 02:26:32;;;;;;;1.60;1.50;;;;;;;30.00;30.94;98698.31;1846636;76;28269;-45
2022/06/21 02:29:21;;;;;;;1.70;1.60;;;;;;;30.03;31.01;98698.27;1845189;77;28498;-45
2022/06/21 02:32:13;;;;;;;1.60;1.60;;;;;;;30.02;31.02;98704.36;1846800;76;28179;-46
2022/06/21 02:35:07;;;;;;;1.60;1.50;;;;;;;30.07;31.02;98700.13;1798846;76;28388;-47
2022/06/21 02:37:58;;;;;;;1.70;1.60;;;;;;;30.12;31.00;98698.39;1837958;76;28438;-45
2022/06/21 02:40:58;;;;;;;1.60;1.50;;;;;;;30.14;31.05;98696.96;1845037;77;28288;-48
2022/06/21 02:43:49;;;;;;;1.77;1.67;;;;;;;30.20;31.05;98689.39;1831080;77;28701;-43
2022/06/21 02:46:41;;;;;;;1.32;1.32;;;;;;;30.22;31.07;98690.73;1800795;77;28254;-48
2022/06/21 02:49:35;;;;;;;2.42;1.77;;;;;;;30.23;31.05;98692.92;1808229;76;28279;-48
2022/06/21 02:52:27;;;;;;;1.60;1.50;;;;;;;30.23;31.07;98688.77;1804662;77;28341;-49
2022/06/21 02:55:27;;;;;;;1.57;1.47;;;;;;;30.22;31.05;98683.81;1815780;77;28454;-45
2022/06/21 02:58:18;;;;;;;1.90;1.80;;;;;;;30.23;31.11;98680.45;1697664;80;28529;-44
2022/06/21 03:01:12;;;;;;;1.55;1.45;;;;;;;30.21;31.11;98685.48;1831204;76;28336;-45
2022/06/21 03:04:01;;;;;;;1.77;1.67;;;;;;;30.22;31.18;98691.30;1845388;77;28185;-47
2022/06/21 03:06:51;;;;;;;1.80;1.70;;;;;;;30.19;31.11;98696.05;1852099;76;28306;-48
2022/06/21 03:09:40;;;;;;;1.60;1.50;;;;;;;30.15;31.18;98695.02;1852419;76;28324;-45
2022/06/21 03:12:31;;;;;;;2.42;1.60;;;;;;;30.11;31.25;98692.61;1819098;76;28274;-44
2022/06/21 03:15:20;;;;;;;1.77;1.67;;;;;;;30.09;31.35;98706.19;1834746;77;28378;-48
2022/06/21 03:18:11;;;;;;;1.70;1.60;;;;;;;30.05;31.36;98699.61;1830471;77;28200;-45
2022/06/21 03:21:01;;;;;;;2.02;1.70;;;;;;;30.05;31.31;98699.61;1831795;76;28494;-44
2022/06/21 03:23:50;;;;;;;1.60;1.60;;;;;;;29.98;31.40;98699.18;1857136;76;28313;-43
2022/06/21 03:26:41;;;;;;;1.80;1.70;;;;;;;29.92;31.48;98696.21;1804960;76;28399;-43
2022/06/21 03:29:31;;;;;;;1.90;1.80;;;;;;;29.82;31.58;98690.86;1841335;77;28258;-44
2022/06/21 03:32:19;;;;;;;1.70;1.60;;;;;;;29.82;31.72;98699.17;1842927;76;28395;-43
2022/06/21 03:35:09;;;;;;;1.90;1.67;;;;;;;29.77;31.94;98705.34;1838667;77;28348;-44
2022/06/21 03:37:57;;;;;;;1.90;1.80;;;;;;;29.77;32.04;98701.19;1820624;77;28442;-46
2022/06/21 03:43:57;;;;;;;1.67;1.57;;;;;;;29.74;32.37;98715.59;1833326;76;28437;-44
2022/06/21 03:47:03;;;;;;;1.80;1.65;;;;;;;29.65;32.71;98711.30;1824716;77;28468;-45
2022/06/21 03:50:03;;;;;;;2.62;1.50;;;;;;;29.64;33.09;98720.72;1838363;76;28310;-46
2022/06/21 03:53:10;;;;;;;1.70;1.60;;;;;;;29.64;33.37;98721.30;1831867;76;28259;-42
2022/06/21 03:56:10;;;;;;;1.80;1.60;;;;;;;29.65;33.59;98719.61;1853223;76;28267;-44
2022/06/21 03:59:30;;;;;;;1.80;1.70;;;;;;;29.66;33.82;98729.57;1819303;76;28361;-43
2022/06/21 04:02:21;;;;;;;2.25;1.60;;;;;;;29.68;33.94;98724.55;1835207;75;28409;-47
2022/06/21 04:05:15;;;;;;;1.80;1.70;;;;;;;29.64;34.09;98731.79;1815087;77;28320;-44
2022/06/21 04:08:09;;;;;;;1.90;1.70;;;;;;;29.75;33.99;98731.92;1857805;76;28298;-44
2022/06/21 04:11:07;;;;;;;2.00;1.90;;;;;;;29.81;33.99;98729.91;1834503;76;28235;-46
2022/06/21 04:14:04;;;;;;;1.77;1.67;;;;;;;29.82;33.95;98726.86;1820439;77;28395;-47
2022/06/21 04:17:17;;;;;;;1.70;1.60;;;;;;;29.90;33.86;98735.02;1794619;77;28359;-47
2022/06/21 04:20:14;;;;;;;2.00;1.80;;;;;;;29.96;33.73;98733.84;1838259;77;28216;-44
2022/06/21 04:23:11;;;;;;;1.70;1.63;;;;;;;30.00;33.60;98737.64;1835329;77;28316;-45
2022/06/21 04:26:05;;;;;;;1.70;1.60;;;;;;;30.09;33.49;98746.34;1815659;77;28429;-47
2022/06/21 04:28:59;;;;;;;1.70;1.60;;;;;;;30.10;33.41;98743.02;1845091;76;28379;-45
2022/06/21 04:31:50;;;;;;;1.85;1.75;;;;;;;30.11;33.21;98739.70;1814346;77;28329;-45
2022/06/21 04:34:51;;;;;;;1.87;1.77;;;;;;;30.16;32.96;98745.95;1816514;76;28326;-44
2022/06/21 04:37:48;;;;;;;1.87;1.77;;;;;;;30.12;32.97;98746.31;1840963;76;28299;-43
2022/06/21 04:40:48;;;;;;;2.22;2.00;;;;;;;30.17;33.06;98753.71;1839710;76;28288;-44
2022/06/21 04:43:45;;;;;;;2.50;1.80;;;;;;;29.82;34.15;98746.24;1829561;76;28236;-48
2022/06/21 04:46:46;;;;;;;1.90;1.70;;;;;;;29.54;35.45;98753.27;1833365;76;28328;-48
2022/06/21 04:49:40;;;;;;;2.42;2.22;;;;;;;29.43;35.93;98760.88;1804855;78;28516;-45
2022/06/21 04:52:44;;;;;;;2.33;2.12;;;;;;;29.06;36.85;98746.94;1833898;76;28242;-44
2022/06/21 04:55:41;;;;;;;1.82;1.72;;;;;;;29.03;37.29;98748.93;1778706;79;28478;-45
2022/06/21 04:58:30;;;;;;;2.37;1.85;;;;;;;29.06;37.30;98740.02;1797488;77;28433;-45
2022/06/21 05:01:37;;;;;;;2.60;2.10;;;;;;;28.93;37.63;98742.95;1819443;77;28417;-47
2022/06/21 05:04:34;;;;;;;2.45;1.98;;;;;;;28.97;37.79;98744.56;1788640;78;28401;-46
2022/06/21 05:07:29;;;;;;;1.85;1.75;;;;;;;29.02;37.74;98750.03;1801646;77;28214;-46
2022/06/21 05:10:20;;;;;;;2.00;1.90;;;;;;;28.96;37.91;98741.00;1775017;78;28407;-46
2022/06/21 05:13:17;;;;;;;2.20;1.90;;;;;;;29.02;37.84;98743.13;1842035;77;28829;-42
2022/06/21 05:16:08;;;;;;;2.10;1.90;;;;;;;29.05;37.86;98754.98;1809892;76;28294;-44
2022/06/21 05:18:59;;;;;;;2.10;2.00;;;;;;;29.05;37.88;98754.98;1846394;77;28206;-44
2022/06/21 05:21:53;;;;;;;2.20;2.00;;;;;;;28.99;37.70;98755.59;1841048;76;28370;-43
2022/06/21 05:24:42;;;;;;;3.90;1.95;;;;;;;28.94;36.69;98754.27;1829835;77;28328;-45
2022/06/21 05:27:34;;;;;;;3.20;2.05;;;;;;;28.94;35.63;98750.70;1848973;76;28262;-44
2022/06/21 05:30:40;;;;;;;2.10;2.00;;;;;;;28.91;35.15;98745.75;1842543;77;28313;-47
2022/06/21 05:33:38;;;;;;;3.22;2.02;;;;;;;28.88;34.75;98740.25;1852651;76;28305;-43
2022/06/21 05:36:30;;;;;;;2.13;2.00;;;;;;;28.85;34.89;98734.47;1847109;76;28199;-45
2022/06/21 05:39:22;;;;;;;2.25;2.15;;;;;;;28.88;34.97;98740.80;1850528;76;28241;-48
2022/06/21 05:42:13;;;;;;;2.00;1.90;;;;;;;28.92;35.09;98741.85;1844880;76;28195;-44
2022/06/21 05:45:14;;;;;;;3.80;2.10;;;;;;;29.00;35.06;98742.05;1847830;76;28397;-45
2022/06/21 05:48:05;;;;;;;2.22;2.00;;;;;;;29.02;35.06;98738.98;1843328;76;28311;-42
2022/06/21 05:50:54;;;;;;;2.10;2.00;;;;;;;29.07;35.09;98741.69;1855791;76;28259;-47
2022/06/21 05:53:45;;;;;;;1.92;1.82;;;;;;;29.13;35.02;98740.48;1862995;76;29079;-46
2022/06/21 05:56:36;;;;;;;1.95;1.82;;;;;;;29.01;35.13;98729.84;1856327;76;28219;-44
2022/06/21 05:59:25;;;;;;;2.42;2.30;;;;;;;29.05;35.09;98726.78;1841260;76;28301;-44
2022/06/21 06:02:22;;;;;;;2.22;2.02;;;;;;;28.98;35.13;98731.02;1836838;76;28312;-43
2022/06/21 06:05:16;;;;;;;2.33;2.00;;;;;;;28.97;35.32;98738.48;1793673;77;28382;-42
2022/06/21 06:08:14;;;;;;;4.92;2.00;;;;;;;29.03;35.53;98724.88;1810903;76;28270;-44
2022/06/21 06:11:05;;;;;;;2.25;2.05;;;;;;;29.10;35.72;98724.51;1825199;76;28359;-45
2022/06/21 06:13:56;;;;;;;2.17;2.07;;;;;;;29.18;35.80;98719.72;1834792;76;28314;-44
2022/06/21 06:16:46;;;;;;;2.85;2.10;;;;;;;29.26;35.73;98728.20;1827521;77;28296;-45
2022/06/21 06:19:40;;;;;;;2.30;2.10;;;;;;;29.33;35.70;98727.83;1822793;76;28395;-44
2022/06/21 06:22:34;;;;;;;2.20;2.00;;;;;;;29.49;35.52;98722.34;1818510;76;28289;-43
2022/06/21 06:25:34;;;;;;;2.80;1.80;;;;;;;29.64;35.32;98727.63;1830357;77;28438;-43
2022/06/21 06:28:35;;;;;;;2.70;2.00;;;;;;;29.78;35.19;98729.95;1744935;79;28467;-46
2022/06/21 06:31:41;;;;;;;2.25;1.90;;;;;;;29.85;35.08;98724.84;1825802;78;28330;-44
2022/06/21 06:34:39;;;;;;;2.10;1.98;;;;;;;29.93;35.01;98718.64;1821234;77;28332;-42
2022/06/21 06:37:36;;;;;;;2.08;1.90;;;;;;;29.98;34.87;98726.88;1805606;77;28237;-43
2022/06/21 06:40:26;;;;;;;2.67;2.10;;;;;;;30.02;34.97;98725.14;1812947;77;28736;-42
2022/06/21 06:43:29;;;;;;;2.25;1.98;;;;;;;30.08;34.90;98717.58;1817810;77;28337;-43
2022/06/21 06:46:26;;;;;;;2.72;1.85;;;;;;;30.14;34.83;98719.68;1828656;77;28232;-43
2022/06/21 06:49:26;;;;;;;2.50;2.00;;;;;;;30.16;34.82;98720.19;1823043;77;28205;-46
2022/06/21 06:52:23;;;;;;;1.90;1.80;;;;;;;30.19;34.58;98712.11;1828669;77;28273;-47
2022/06/21 06:55:21;;;;;;;3.30;2.02;;;;;;;30.24;34.59;98709.81;1814266;77;28326;-45
2022/06/21 06:58:18;;;;;;;2.27;2.17;;;;;;;30.27;34.50;98713.37;1832048;77;28285;-44
2022/06/21 07:01:16;;;;;;;1.87;1.77;;;;;;;30.29;34.44;98704.19;1808612;77;28289;-45
2022/06/21 07:04:05;;;;;;;1.90;1.80;;;;;;;30.32;34.41;98704.95;1825079;77;28293;-43
2022/06/21 07:07:00;;;;;;;1.90;1.80;;;;;;;30.35;34.31;98711.30;1828269;77;28258;-42
2022/06/21 07:09:51;;;;;;;2.08;1.80;;;;;;;30.38;34.30;98704.61;1825027;76;28396;-45
2022/06/21 07:12:40;;;;;;;1.80;1.70;;;;;;;30.43;34.15;98700.92;1807607;78;28368;-47
2022/06/21 07:15:39;;;;;;;2.00;1.90;;;;;;;30.42;34.15;98703.42;1783906;78;28424;-50
2022/06/21 07:18:33;;;;;;;1.73;1.63;;;;;;;30.46;34.08;98709.43;1822265;76;28271;-46
2022/06/21 07:21:23;;;;;;;2.02;1.77;;;;;;;30.47;34.06;98701.94;1831820;77;28379;-43
2022/06/21 07:24:20;;;;;;;2.00;1.85;;;;;;;30.48;34.04;98691.13;1827413;76;28292;-43
2022/06/21 07:27:13;;;;;;;1.80;1.70;;;;;;;30.51;34.00;98709.89;1786231;79;28314;-45
2022/06/21 07:30:14;;;;;;;1.77;1.67;;;;;;;30.53;33.99;98699.31;1817602;76;28399;-46
2022/06/21 07:33:08;;;;;;;1.98;1.87;;;;;;;30.56;33.94;98706.47;1835829;77;28294;-44
2022/06/21 07:36:02;;;;;;;1.70;1.60;;;;;;;30.58;33.94;98699.23;1826665;77;28286;-43
2022/06/21 07:39:00;;;;;;;1.90;1.75;;;;;;;30.49;34.00;98681.11;1831064;76;28255;-44
2022/06/21 07:41:57;;;;;;;1.70;1.60;;;;;;;30.59;33.90;98685.64;1810640;78;28336;-45
2022/06/21 07:44:58;;;;;;;2.17;1.67;;;;;;;30.60;33.85;98686.70;1814781;77;27867;-43
2022/06/21 07:48:07;;;;;;;2.60;1.80;;;;;;;30.62;33.88;98679.48;1817247;77;28351;-48
2022/06/21 07:51:14;;;;;;;1.80;1.70;;;;;;;30.61;33.84;98681.44;1830180;77;28246;-45
2022/06/21 07:54:17;;;;;;;2.42;1.80;;;;;;;30.60;33.88;98678.95;1829813;77;28207;-44
2022/06/21 07:57:18;;;;;;;1.77;1.67;;;;;;;30.62;33.87;98683.06;1788679;79;28383;-45
2022/06/21 08:00:15;;;;;;;1.82;1.72;;;;;;;30.62;33.87;98684.45;1778669;78;28524;-45
2022/06/21 08:09:32;;;;;;;1.72;1.62;;;;;;;30.67;33.85;98682.13;1762004;78;28773;-44
2022/06/21 08:12:21;;;;;;;1.80;1.70;;;;;;;30.66;33.87;98676.34;1833922;77;28330;-45
2022/06/21 08:15:10;;;;;;;1.77;1.60;;;;;;;30.69;33.81;98672.97;1822988;76;28811;-45
2022/06/21 08:18:13;;;;;;;1.70;1.60;;;;;;;30.72;33.81;98671.77;1830380;77;28283;-44
2022/06/21 08:21:07;;;;;;;1.90;1.75;;;;;;;30.75;33.76;98661.47;1807950;77;28313;-43
2022/06/21 08:24:08;;;;;;;2.00;1.50;;;;;;;30.75;33.75;98657.86;1831394;77;28294;-45
2022/06/21 08:27:02;;;;;;;1.75;1.65;;;;;;;30.77;33.77;98658.38;1819659;77;28304;-42
2022/06/21 08:29:56;;;;;;;1.60;1.60;;;;;;;30.78;33.75;98642.00;1817812;77;28363;-44
2022/06/21 08:32:57;;;;;;;1.72;1.60;;;;;;;30.81;33.73;98639.17;1835235;77;28229;-45
2022/06/21 08:35:51;;;;;;;1.87;1.77;;;;;;;30.81;33.69;98638.59;1805687;77;28949;-44
2022/06/21 08:38:42;;;;;;;1.37;1.37;;;;;;;30.81;33.72;98641.95;1821485;77;28403;-43
2022/06/21 08:41:52;;;;;;;1.75;1.65;;;;;;;30.82;33.71;98626.94;1821992;78;28610;-43
2022/06/21 08:48:41;;;;;;;1.82;1.70;;;;;;;30.80;33.77;98625.05;1780233;79;28525;-43
2022/06/21 08:51:38;;;;;;;1.50;1.42;;;;;;;30.76;33.84;98630.38;1774972;78;28432;-46
2022/06/21 08:54:52;;;;;;;1.90;1.80;;;;;;;30.76;33.86;98620.66;1775876;79;28419;-45
2022/06/21 08:57:46;;;;;;;2.10;1.70;;;;;;;30.74;33.85;98612.66;1810206;77;28491;-45
2022/06/21 09:01:03;;;;;;;1.98;1.70;;;;;;;30.80;33.84;98631.98;1840135;76;28350;-48
2022/06/21 09:04:03;;;;;;;2.22;1.70;;;;;;;30.82;33.81;98623.60;1767161;79;28488;-43
2022/06/21 09:06:55;;;;;;;1.87;1.77;;;;;;;30.81;33.82;98623.34;1774664;78;28453;-43
2022/06/21 09:09:52;;;;;;;1.70;1.60;;;;;;;30.83;33.84;98615.52;1834982;77;28524;-43
2022/06/21 09:13:01;;;;;;;1.70;1.60;;;;;;;30.85;33.83;98607.74;1829805;76;28285;-44
2022/06/21 09:16:09;;;;;;;1.73;1.63;;;;;;;30.86;33.81;98617.69;1807779;77;28271;-44
2022/06/21 09:19:09;;;;;;;1.67;1.57;;;;;;;30.86;33.83;98623.79;1845762;76;28318;-43
2022/06/21 09:22:13;;;;;;;1.77;1.67;;;;;;;30.86;33.83;98617.69;1837167;77;28276;-44
2022/06/21 09:25:11;;;;;;;1.65;1.55;;;;;;;30.89;33.80;98615.72;1836410;76;28361;-44
2022/06/21 09:28:02;;;;;;;2.17;1.70;;;;;;;30.89;33.81;98610.73;1845224;77;28289;-44
2022/06/21 09:31:02;;;;;;;1.50;1.50;;;;;;;30.89;33.83;98606.02;1844999;76;28270;-43
2022/06/21 09:33:55;;;;;;;1.80;1.70;;;;;;;30.92;33.79;98597.64;1844431;76;28692;-45
2022/06/21 09:37:07;;;;;;;1.57;1.50;;;;;;;30.92;33.78;98595.69;1852972;76;28262;-44
2022/06/21 09:40:14;;;;;;;1.52;1.50;;;;;;;30.95;33.75;98587.31;1851585;76;28262;-44
2022/06/21 09:43:24;;;;;;;1.70;1.60;;;;;;;30.92;33.79;98594.30;1807445;77;28267;-45
2022/06/21 09:46:24;;;;;;;1.40;1.40;;;;;;;30.92;33.81;98592.92;1829822;77;28282;-43
2022/06/21 09:49:24;;;;;;;1.40;1.40;;;;;;;30.93;33.79;98590.94;1829312;77;28281;-46
2022/06/21 09:52:30;;;;;;;1.60;1.50;;;;;;;30.93;33.78;98584.00;1840084;77;28225;-45
2022/06/21 09:55:44;;;;;;;1.60;1.50;;;;;;;30.95;33.77;98574.84;1797215;78;28351;-43
2022/06/21 09:58:39;;;;;;;1.50;1.50;;;;;;;30.94;33.80;98564.30;1797684;78;28406;-44
2022/06/21 10:01:42;;;;;;;1.63;1.53;;;;;;;30.96;33.81;98566.19;1775595;77;28445;-46
2022/06/21 10:04:40;;;;;;;1.40;1.40;;;;;;;30.96;33.80;98571.73;1823809;77;28241;-44
2022/06/21 10:07:49;;;;;;;1.47;1.47;;;;;;;30.98;33.77;98561.70;1811327;78;28418;-44
2022/06/21 10:10:47;;;;;;;1.60;1.50;;;;;;;31.01;33.76;98563.86;1785256;77;28391;-44
2022/06/21 10:13:44;;;;;;;1.90;1.45;;;;;;;30.98;33.81;98563.92;1808583;78;28398;-46
2022/06/21 10:16:45;;;;;;;1.70;1.60;;;;;;;31.02;33.78;98555.78;1840839;77;28259;-45
2022/06/21 10:19:54;;;;;;;1.70;1.60;;;;;;;31.03;33.77;98555.48;1841193;77;28270;-45
2022/06/21 10:23:04;;;;;;;1.60;1.47;;;;;;;31.04;33.78;98550.17;1842232;76;28322;-44
2022/06/21 10:26:12;;;;;;;1.40;1.40;;;;;;;31.04;33.78;98552.95;1817694;76;28665;-45
2022/06/21 10:29:37;;;;;;;1.60;1.50;;;;;;;31.01;33.77;98537.52;1819971;78;28275;-45
2022/06/21 10:32:34;;;;;;;1.60;1.50;;;;;;;31.05;33.77;98527.42;1820269;77;28290;-43
2022/06/21 10:35:29;;;;;;;1.37;1.37;;;;;;;31.04;33.80;98521.05;1838653;76;28313;-43
2022/06/21 10:38:29;;;;;;;1.70;1.60;;;;;;;31.04;33.77;98509.16;1817292;77;28258;-44
2022/06/21 10:41:36;;;;;;;1.30;1.30;;;;;;;31.08;33.73;98508.21;1781903;79;28421;-46
2022/06/21 10:44:38;;;;;;;1.33;1.33;;;;;;;31.08;33.76;98517.92;1792416;78;28352;-43
2022/06/21 10:47:38;;;;;;;1.70;1.60;;;;;;;31.08;33.77;98515.70;1822908;77;28224;-45
2022/06/21 10:50:32;;;;;;;1.70;1.60;;;;;;;31.09;33.81;98509.00;1804948;77;28250;-50
2022/06/21 10:53:46;;;;;;;1.50;1.50;;;;;;;31.09;33.81;98508.45;1840009;77;28238;-48
2022/06/21 10:57:11;;;;;;;1.55;1.50;;;;;;;31.12;33.80;98509.22;1836978;77;28687;-44
2022/06/21 11:03:41;;;;;;;1.60;1.60;;;;;;;31.06;33.87;98515.20;1821874;77;28294;-45
2022/06/21 11:06:49;;;;;;;1.45;1.45;;;;;;;31.06;33.88;98510.48;1842287;77;28299;-44
2022/06/21 11:09:57;;;;;;;1.65;1.55;;;;;;;31.08;33.87;98501.28;1816590;77;28342;-44
2022/06/21 11:13:04;;;;;;;1.67;1.57;;;;;;;31.10;33.86;98510.09;1815060;77;28285;-47
2022/06/21 11:15:56;;;;;;;1.60;1.60;;;;;;;31.10;33.88;98504.55;1817046;77;33173;-48
2022/06/21 11:19:00;;;;;;;1.40;1.40;;;;;;;31.14;33.83;98493.63;1818288;76;28293;-46
2022/06/21 11:21:58;;;;;;;1.67;1.50;;;;;;;31.14;33.79;98476.42;1767202;79;28400;-45
2022/06/21 11:24:58;;;;;;;2.45;1.55;;;;;;;31.16;33.80;98467.77;1814397;77;28329;-45
2022/06/21 11:28:09;;;;;;;1.62;1.52;;;;;;;31.15;33.79;98472.52;1833008;77;28307;-44
2022/06/21 11:31:06;;;;;;;1.40;1.40;;;;;;;31.17;33.79;98473.58;1827794;76;28302;-44
2022/06/21 11:34:01;;;;;;;1.50;1.40;;;;;;;31.16;33.82;98464.44;1826451;77;28317;-44
2022/06/21 11:37:11;;;;;;;1.67;1.40;;;;;;;31.18;33.79;98463.55;1826784;76;28187;-44
2022/06/21 11:40:17;;;;;;;1.70;1.60;;;;;;;31.20;33.82;98468.80;1762089;79;28495;-45
2022/06/21 11:43:22;;;;;;;1.50;1.40;;;;;;;31.19;33.80;98469.36;1785700;79;28429;-44
2022/06/21 11:46:38;;;;;;;1.40;1.40;;;;;;;31.18;33.84;98455.81;1821714;78;28123;-44
2022/06/21 11:49:32;;;;;;;1.62;1.52;;;;;;;31.17;33.82;98456.38;1827194;77;28225;-42
2022/06/21 11:52:45;;;;;;;1.50;1.40;;;;;;;31.17;33.84;98445.28;1839872;77;28386;-44
2022/06/21 11:55:51;;;;;;;1.47;1.40;;;;;;;31.19;33.84;98435.23;1755078;79;28507;-43
2022/06/21 11:58:58;;;;;;;1.50;1.50;;;;;;;31.21;33.84;98448.22;1763924;80;28340;-45
2022/06/21 12:01:58;;;;;;;1.80;1.70;;;;;;;31.21;33.85;98444.06;1775924;78;28554;-44
2022/06/21 12:04:49;;;;;;;1.52;1.50;;;;;;;31.24;33.84;98440.66;1801035;78;28414;-43
2022/06/21 12:07:58;;;;;;;1.60;1.50;;;;;;;31.24;33.80;98438.72;1803865;78;28376;-45
2022/06/21 12:10:53;;;;;;;1.40;1.40;;;;;;;31.26;33.79;98441.98;1789122;79;28196;-44
2022/06/21 12:14:04;;;;;;;1.50;1.50;;;;;;;31.26;33.86;98445.32;1782701;80;28381;-44
2022/06/21 12:17:04;;;;;;;1.40;1.30;;;;;;;31.27;33.84;98433.89;1788379;78;28261;-45
2022/06/21 12:19:56;;;;;;;1.50;1.40;;;;;;;31.27;33.87;98428.34;1808157;78;28282;-42
2022/06/21 12:22:56;;;;;;;1.52;1.52;;;;;;;31.26;33.85;98423.13;1849541;77;28203;-43
2022/06/21 12:25:46;;;;;;;1.80;1.70;;;;;;;31.27;33.85;98425.56;1767521;79;28372;-45
2022/06/21 12:28:37;;;;;;;1.40;1.40;;;;;;;31.29;33.86;98427.48;1781255;78;28380;-47
2022/06/21 12:31:28;;;;;;;1.47;1.40;;;;;;;31.32;33.84;98422.66;1796437;77;28395;-43
2022/06/21 12:34:41;;;;;;;1.32;1.32;;;;;;;31.32;33.84;98419.89;1827092;77;28295;-45
2022/06/21 12:37:35;;;;;;;1.55;1.47;;;;;;;31.35;33.83;98415.66;1822550;77;28387;-45
2022/06/21 12:40:50;;;;;;;1.60;1.50;;;;;;;31.32;33.88;98398.28;1780371;77;28497;-46
2022/06/21 12:44:00;;;;;;;1.30;1.30;;;;;;;31.33;33.89;98409.05;1737315;79;28434;-45
2022/06/21 12:46:57;;;;;;;1.42;1.40;;;;;;;31.31;33.91;98417.45;1816658;77;28307;-44
2022/06/21 12:50:06;;;;;;;1.45;1.45;;;;;;;31.30;33.92;98411.62;1832496;77;28802;-43
2022/06/21 12:53:13;;;;;;;1.30;1.30;;;;;;;31.33;33.90;98421.54;1825915;77;28233;-44
2022/06/21 12:56:33;;;;;;;1.47;1.37;;;;;;;31.34;33.93;98416.22;1816643;77;28279;-44
2022/06/21 12:59:30;;;;;;;1.60;1.50;;;;;;;31.32;33.91;98424.05;1829820;77;28332;-43
2022/06/21 13:02:37;;;;;;;1.37;1.37;;;;;;;31.31;33.98;98427.98;1818412;77;28322;-45
2022/06/21 13:05:38;;;;;;;1.30;1.30;;;;;;;31.32;33.96;98421.28;1833254;77;28206;-44
2022/06/21 13:08:51;;;;;;;1.57;1.47;;;;;;;31.34;33.97;98432.88;1817106;77;28565;-44
2022/06/21 13:12:10;;;;;;;1.70;1.60;;;;;;;31.34;33.95;98430.69;1838957;76;28229;-45
2022/06/21 13:15:27;;;;;;;1.32;1.32;;;;;;;31.34;33.97;98435.65;1824680;77;28272;-44
2022/06/21 13:18:19;;;;;;;1.40;1.40;;;;;;;31.32;34.00;98428.22;1807488;77;28137;-43
2022/06/21 13:21:27;;;;;;;1.40;1.40;;;;;;;31.31;34.04;98425.20;1824220;77;28568;-44
2022/06/21 13:24:44;;;;;;;1.37;1.37;;;;;;;31.34;34.02;98435.65;1816948;77;28386;-45
2022/06/21 13:27:54;;;;;;;1.60;1.40;;;;;;;31.34;34.00;98436.24;1830621;77;28316;-43
2022/06/21 13:31:03;;;;;;;1.42;1.32;;;;;;;31.35;34.02;98430.92;1796668;79;28850;-43
2022/06/21 13:33:57;;;;;;;1.60;1.50;;;;;;;31.33;34.06;98430.43;1788406;78;28490;-45
2022/06/21 13:36:48;;;;;;;1.32;1.30;;;;;;;31.33;34.03;98450.68;1838081;77;28303;-48
2022/06/21 13:39:46;;;;;;;1.60;1.50;;;;;;;31.36;34.02;98454.78;1805228;78;28290;-44
2022/06/21 13:42:49;;;;;;;1.32;1.32;;;;;;;31.37;34.03;98458.61;1790078;78;28259;-43
2022/06/21 13:45:52;;;;;;;1.60;1.50;;;;;;;31.40;33.95;98446.89;1821982;77;28141;-45
2022/06/21 13:48:52;;;;;;;1.92;1.82;;;;;;;31.39;33.99;98435.52;1786465;79;28376;-43
2022/06/21 13:51:56;;;;;;;2.30;1.50;;;;;;;31.38;33.99;98413.09;1746928;81;28581;-45
2022/06/21 13:54:53;;;;;;;1.50;1.40;;;;;;;31.39;34.00;98417.48;1794890;78;28343;-45
2022/06/21 13:57:47;;;;;;;1.30;1.30;;;;;;;31.40;34.00;98436.34;1812041;78;28316;-43
2022/06/21 14:00:39;;;;;;;1.45;1.35;;;;;;;31.41;33.99;98442.16;1834578;77;28357;-46
2022/06/21 14:03:44;;;;;;;1.50;1.40;;;;;;;31.43;33.97;98450.19;1835426;77;28237;-44
2022/06/21 14:06:52;;;;;;;1.50;1.40;;;;;;;31.44;33.97;98458.19;1836064;77;28202;-43
2022/06/21 14:10:05;;;;;;;1.27;1.27;;;;;;;31.43;33.99;98459.91;1836621;77;28494;-43
2022/06/21 14:13:09;;;;;;;1.60;1.50;;;;;;;31.42;34.00;98460.44;1836452;77;28220;-44
2022/06/21 14:16:02;;;;;;;1.60;1.50;;;;;;;31.41;34.00;98452.67;1838013;77;28202;-42